createdAt,value
2023-02-22T00:01:36.254Z,96224.28
2023-02-22T00:04:05.157Z,96233.41
2023-02-22T00:06:32.660Z,96219.53
2023-02-22T00:09:02.275Z,96225.22
2023-02-22T00:11:31.457Z,96226.47
2023-02-22T00:13:59.032Z,96220.75
2023-02-22T00:16:27.910Z,96225.88
2023-02-22T00:18:55.610Z,96223.53
2023-02-22T00:21:23.502Z,96221.94
2023-02-22T00:23:51.050Z,96227.91
2023-02-22T00:26:23.870Z,96216.28
2023-02-22T00:28:53.398Z,96209.72
2023-02-22T00:31:22.311Z,96212.97
2023-02-22T00:33:51.175Z,96211.03
2023-02-22T00:36:18.713Z,96214.06
2023-02-22T00:38:46.193Z,96214.91
2023-02-22T00:41:13.819Z,96209.50
2023-02-22T00:43:41.409Z,96206.72
2023-02-22T00:46:08.927Z,96198.41
2023-02-22T00:48:36.464Z,96202.56
2023-02-22T00:51:05.681Z,96201.19
2023-02-22T00:53:33.224Z,96194.53
2023-02-22T00:56:00.723Z,96201.44
2023-02-22T00:58:28.785Z,96199.66
2023-02-22T01:00:56.322Z,96200.19
2023-02-22T01:03:23.838Z,96199.66
2023-02-22T01:05:51.470Z,96198.25
2023-02-22T01:08:20.431Z,96192.84
2023-02-22T01:10:48.157Z,96201.19
2023-02-22T01:13:15.693Z,96190.66
2023-02-22T01:15:45.191Z,96189.25
2023-02-22T01:18:17.103Z,96186.78
2023-02-22T01:20:48.015Z,96182.72
2023-02-22T01:23:17.246Z,96176.22
2023-02-22T01:25:46.374Z,96181.16
2023-02-22T01:28:15.101Z,96184.00
2023-02-22T01:30:42.653Z,96171.41
2023-02-22T01:33:10.413Z,96172.78
2023-02-22T01:35:40.781Z,96179.44
2023-02-22T01:38:09.954Z,96175.59
2023-02-22T01:40:38.954Z,96178.00
2023-02-22T01:43:17.260Z,96171.78
2023-02-22T01:45:49.958Z,96172.06
2023-02-22T01:48:21.435Z,96170.09
2023-02-22T01:50:54.023Z,96175.34
2023-02-22T01:53:24.139Z,96174.25
2023-02-22T01:55:53.614Z,96172.44
2023-02-22T01:58:25.249Z,96169.00
2023-02-22T02:00:52.813Z,96174.13
2023-02-22T02:03:23.494Z,96160.41
2023-02-22T02:05:53.674Z,96157.06
2023-02-22T02:08:30.105Z,96163.03
2023-02-22T02:10:58.942Z,96155.75
2023-02-22T02:13:29.146Z,96154.31
2023-02-22T02:15:57.310Z,96158.31
2023-02-22T02:18:27.330Z,96145.41
2023-02-22T02:21:34.647Z,96146.84
2023-02-22T02:24:28.384Z,96152.75
2023-02-22T02:27:20.899Z,96148.34
2023-02-22T02:30:29.446Z,96146.22
2023-02-22T02:33:04.080Z,96144.53
2023-02-22T02:35:47.790Z,96141.75
2023-02-22T02:38:23.877Z,96135.34
2023-02-22T02:40:59.454Z,96140.81
2023-02-22T02:43:33.373Z,96133.69
2023-02-22T02:46:06.978Z,96135.09
2023-02-22T02:48:40.250Z,96136.19
2023-02-22T02:51:14.191Z,96127.34
2023-02-22T02:53:45.699Z,96127.47
2023-02-22T02:56:13.499Z,96125.66
2023-02-22T02:58:48.978Z,96128.00
2023-02-22T03:01:28.853Z,96114.53
2023-02-22T03:04:20.294Z,96110.72
2023-02-22T03:07:26.570Z,96111.13
2023-02-22T03:10:03.840Z,96115.38
2023-02-22T03:12:43.790Z,96110.41
2023-02-22T03:15:23.511Z,96107.34
2023-02-22T03:17:57.789Z,96106.63
2023-02-22T03:20:32.454Z,96098.06
2023-02-22T03:23:05.449Z,96106.09
2023-02-22T03:25:37.595Z,96097.34
2023-02-22T03:28:11.402Z,96102.75
2023-02-22T03:30:44.122Z,96102.88
2023-02-22T03:33:16.623Z,96103.84
2023-02-22T03:35:50.940Z,96102.56
2023-02-22T03:38:21.847Z,96102.88
2023-02-22T03:40:54.393Z,96090.94
2023-02-22T03:43:25.881Z,96097.88
2023-02-22T03:45:54.090Z,96100.94
2023-02-22T03:48:26.672Z,96096.81
2023-02-22T03:50:58.551Z,96092.41
2023-02-22T03:53:26.255Z,96096.56
2023-02-22T03:55:57.859Z,96095.16
2023-02-22T03:58:27.486Z,96099.88
2023-02-22T04:00:56.072Z,96097.94
2023-02-22T04:03:24.267Z,96098.75
2023-02-22T04:05:51.740Z,96097.88
2023-02-22T04:08:20.594Z,96097.88
2023-02-22T04:10:48.062Z,96096.22
2023-02-22T04:13:15.591Z,96094.28
2023-02-22T04:15:43.298Z,96093.72
2023-02-22T04:18:10.782Z,96095.41
2023-02-22T04:20:38.237Z,96100.78
2023-02-22T04:23:05.816Z,96099.94
2023-02-22T04:25:34.602Z,96102.97
2023-02-22T04:28:02.121Z,96100.06
2023-02-22T04:30:30.107Z,96102.28
2023-02-22T04:32:57.874Z,96097.72
2023-02-22T04:35:25.360Z,96092.03
2023-02-22T04:37:52.862Z,96098.97
2023-02-22T04:40:23.010Z,96090.09
2023-02-22T04:42:51.833Z,96097.28
2023-02-22T04:45:19.326Z,96097.81
2023-02-22T04:47:46.813Z,96095.00
2023-02-22T04:50:15.259Z,96092.53
2023-02-22T04:52:42.746Z,96088.34
2023-02-22T04:55:10.853Z,96084.44
2023-02-22T04:57:38.353Z,96083.63
2023-02-22T05:00:10.189Z,96083.78
2023-02-22T05:02:39.912Z,96082.28
2023-02-22T05:05:08.152Z,96086.16
2023-02-22T05:07:35.627Z,96088.34
2023-02-22T05:10:03.661Z,96087.03
2023-02-22T05:12:31.134Z,96090.66
2023-02-22T05:14:58.600Z,96088.78
2023-02-22T05:17:27.475Z,96091.56
2023-02-22T05:19:54.958Z,96085.13
2023-02-22T05:22:22.439Z,96083.75
2023-02-22T05:24:49.910Z,96078.78
2023-02-22T05:27:17.428Z,96077.56
2023-02-22T05:29:44.933Z,96078.94
2023-02-22T05:32:13.112Z,96075.50
2023-02-22T05:34:41.946Z,96065.56
2023-02-22T05:37:09.428Z,96067.25
2023-02-22T05:39:36.928Z,96060.88
2023-02-22T05:42:04.504Z,96070.19
2023-02-22T05:44:31.982Z,96064.41
2023-02-22T05:46:59.452Z,96064.31
2023-02-22T05:49:26.942Z,96068.63
2023-02-22T05:51:59.505Z,96071.41
2023-02-22T05:54:27.028Z,96072.78
2023-02-22T05:56:54.498Z,96070.31
2023-02-22T05:59:21.973Z,96069.06
2023-02-22T06:01:49.498Z,96067.81
2023-02-22T06:04:17.093Z,96066.44
2023-02-22T06:06:44.543Z,96064.81
2023-02-22T06:09:13.374Z,96063.97
2023-02-22T06:11:40.856Z,96059.25
2023-02-22T06:14:08.320Z,96060.38
2023-02-22T06:16:35.811Z,96065.94
2023-02-22T06:19:03.362Z,96058.44
2023-02-22T06:21:30.840Z,96060.81
2023-02-22T06:23:58.317Z,96066.19
2023-02-22T06:26:27.145Z,96070.66
2023-02-22T06:28:54.602Z,96073.41
2023-02-22T06:31:22.078Z,96075.34
2023-02-22T06:33:49.544Z,96075.47
2023-02-22T06:36:16.981Z,96071.97
2023-02-22T06:38:44.430Z,96076.34
2023-02-22T06:41:11.867Z,96078.31
2023-02-22T06:43:40.638Z,96080.78
2023-02-22T06:46:11.506Z,96078.50
2023-02-22T06:48:40.133Z,96080.97
2023-02-22T06:51:09.193Z,96083.44
2023-02-22T06:53:36.722Z,96080.81
2023-02-22T06:56:04.428Z,96084.63
2023-02-22T06:58:31.874Z,96082.88
2023-02-22T07:01:02.753Z,96093.09
2023-02-22T07:03:30.269Z,96085.16
2023-02-22T07:05:57.730Z,96090.03
2023-02-22T07:08:25.191Z,96086.22
2023-02-22T07:10:53.048Z,96085.25
2023-02-22T07:13:20.528Z,96086.47
2023-02-22T07:15:48.315Z,96083.41
2023-02-22T07:18:17.147Z,96090.56
2023-02-22T07:20:44.622Z,96086.09
2023-02-22T07:23:14.846Z,96093.56
2023-02-22T07:25:42.722Z,96083.00
2023-02-22T07:28:11.049Z,96085.13
2023-02-22T07:30:39.186Z,96083.06
2023-02-22T07:33:09.288Z,96080.59
2023-02-22T07:35:40.065Z,96084.25
2023-02-22T07:38:09.171Z,96081.59
2023-02-22T07:40:37.743Z,96081.22
2023-02-22T07:43:11.247Z,96071.09
2023-02-22T07:45:38.727Z,96083.41
2023-02-22T07:48:07.630Z,96082.94
2023-02-22T07:50:36.560Z,96080.97
2023-02-22T07:53:10.956Z,96071.59
2023-02-22T07:55:38.575Z,96076.75
2023-02-22T07:58:09.163Z,96079.59
2023-02-22T08:00:39.215Z,96072.75
2023-02-22T08:03:08.576Z,96069.19
2023-02-22T08:05:37.500Z,96065.50
2023-02-22T08:08:08.244Z,96068.09
2023-02-22T08:10:36.945Z,96068.41
2023-02-22T08:13:05.837Z,96070.00
2023-02-22T08:15:35.677Z,96069.84
2023-02-22T08:18:05.027Z,96060.06
2023-02-22T08:20:32.922Z,96062.53
2023-02-22T08:23:00.372Z,96062.59
2023-02-22T08:25:30.499Z,96063.56
2023-02-22T08:28:01.090Z,96063.75
2023-02-22T08:30:29.894Z,96062.78
2023-02-22T08:32:58.096Z,96060.53
2023-02-22T08:35:27.394Z,96059.56
2023-02-22T08:37:58.235Z,96048.53
2023-02-22T08:40:28.644Z,96045.38
2023-02-22T08:42:57.466Z,96044.34
2023-02-22T08:45:25.375Z,96046.72
2023-02-22T08:47:52.993Z,96046.56
2023-02-22T08:50:23.107Z,96050.38
2023-02-22T08:52:51.300Z,96052.31
2023-02-22T08:55:20.685Z,96048.06
2023-02-22T08:57:48.128Z,96044.28
2023-02-22T09:00:18.552Z,96047.09
2023-02-22T09:02:46.199Z,96049.38
2023-02-22T09:05:13.951Z,96045.94
2023-02-22T09:07:43.340Z,96052.09
2023-02-22T09:10:15.397Z,96056.88
2023-02-22T09:12:43.246Z,96047.34
2023-02-22T09:15:12.139Z,96051.75
2023-02-22T09:17:40.928Z,96046.69
2023-02-22T09:20:10.352Z,96044.84
2023-02-22T09:22:37.808Z,96046.09
2023-02-22T09:25:16.269Z,96040.19
2023-02-22T09:27:44.968Z,96036.38
2023-02-22T09:30:18.070Z,96045.59
2023-02-22T09:32:47.024Z,96043.91
2023-02-22T09:35:14.600Z,96039.03
2023-02-22T09:37:44.856Z,96040.75
2023-02-22T09:40:24.653Z,96040.13
2023-02-22T09:43:03.190Z,96036.75
2023-02-22T09:45:36.924Z,96033.97
2023-02-22T09:48:21.152Z,96033.28
2023-02-22T09:50:53.675Z,96029.94
2023-02-22T09:53:29.537Z,96028.25
2023-02-22T09:56:01.576Z,96026.34
2023-02-22T09:58:34.217Z,96021.75
2023-02-22T10:01:17.205Z,96018.78
2023-02-22T10:03:51.638Z,96008.22
2023-02-22T10:06:22.589Z,96006.81
2023-02-22T10:08:53.719Z,96005.47
2023-02-22T10:11:35.008Z,96002.25
2023-02-22T10:14:14.449Z,96002.78
2023-02-22T10:16:48.183Z,96007.34
2023-02-22T10:19:25.945Z,95995.50
2023-02-22T10:22:06.785Z,96006.06
2023-02-22T10:24:45.453Z,96003.59
2023-02-22T10:27:19.504Z,95999.34
2023-02-22T10:29:51.781Z,95989.06
2023-02-22T10:32:32.147Z,95983.34
2023-02-22T10:35:05.380Z,95983.59
2023-02-22T10:37:34.293Z,95979.53
2023-02-22T10:40:13.892Z,95985.59
2023-02-22T10:42:41.350Z,95973.72
2023-02-22T10:45:22.407Z,95973.69
2023-02-22T10:47:50.711Z,95974.88
2023-02-22T10:50:21.394Z,95972.19
2023-02-22T10:52:49.112Z,95974.75
2023-02-22T10:55:17.497Z,95973.94
2023-02-22T10:57:48.533Z,95974.53
2023-02-22T11:00:20.483Z,95962.72
2023-02-22T11:02:53.656Z,95961.25
2023-02-22T11:05:36.868Z,95959.91
2023-02-22T11:08:24.645Z,95958.63
2023-02-22T11:10:54.272Z,95955.38
2023-02-22T11:13:26.910Z,95949.09
2023-02-22T11:15:54.738Z,95944.09
2023-02-22T11:18:26.643Z,95942.94
2023-02-22T11:21:07.780Z,95942.09
2023-02-22T11:23:37.551Z,95938.38
2023-02-22T11:26:09.840Z,95938.88
2023-02-22T11:28:49.093Z,95933.78
2023-02-22T11:31:21.552Z,95920.63
2023-02-22T11:36:37.443Z,95923.44
2023-02-22T11:39:11.456Z,95909.16
2023-02-22T11:41:39.050Z,95910.16
2023-02-22T11:44:15.080Z,95904.22
2023-02-22T11:46:44.575Z,95906.44
2023-02-22T11:49:17.212Z,95902.56
2023-02-22T11:51:54.317Z,95902.34
2023-02-22T11:54:46.916Z,95898.13
2023-02-22T11:57:32.929Z,95893.78
2023-02-22T12:00:15.952Z,95889.75
2023-02-22T12:03:03.385Z,95891.91
2023-02-22T12:05:59.353Z,95890.47
2023-02-22T12:08:40.975Z,95883.13
2023-02-22T12:11:18.158Z,95884.81
2023-02-22T12:14:02.491Z,95882.16
2023-02-22T12:16:44.708Z,95879.81
2023-02-22T12:19:21.956Z,95873.41
2023-02-22T12:21:55.716Z,95871.84
2023-02-22T12:24:27.989Z,95866.41
2023-02-22T12:27:02.099Z,95868.28
2023-02-22T12:29:37.564Z,95870.06
2023-02-22T12:32:09.968Z,95858.25
2023-02-22T12:34:41.857Z,95859.97
2023-02-22T12:37:18.858Z,95864.09
2023-02-22T12:40:03.271Z,95868.63
2023-02-22T12:42:40.785Z,95865.88
2023-02-22T12:45:16.782Z,95866.84
2023-02-22T12:47:50.090Z,95869.97
2023-02-22T12:50:20.865Z,95873.94
2023-02-22T12:52:56.311Z,95863.03
2023-02-22T12:55:29.471Z,95871.75
2023-02-22T12:58:07.590Z,95863.78
2023-02-22T13:00:42.671Z,95865.44
2023-02-22T13:03:27.033Z,95866.16
2023-02-22T13:06:03.909Z,95856.19
2023-02-22T13:08:38.225Z,95858.88
2023-02-22T13:11:22.273Z,95850.63
2023-02-22T13:14:03.784Z,95853.88
2023-02-22T13:16:43.711Z,95853.97
2023-02-22T13:19:24.870Z,95850.22
2023-02-22T13:21:57.964Z,95850.69
2023-02-22T13:24:30.276Z,95843.13
2023-02-22T13:27:02.624Z,95845.59
2023-02-22T13:29:35.031Z,95841.22
2023-02-22T13:32:18.169Z,95844.78
2023-02-22T13:35:15.066Z,95836.69
2023-02-22T13:37:56.742Z,95837.94
2023-02-22T13:40:54.825Z,95832.16
2023-02-22T13:43:43.304Z,95823.91
2023-02-22T13:46:36.118Z,95827.16
2023-02-22T13:49:18.744Z,95826.41
2023-02-22T13:51:51.478Z,95827.88
2023-02-22T13:54:25.318Z,95826.75
2023-02-22T13:56:55.057Z,95827.50
2023-02-22T13:59:28.588Z,95829.94
2023-02-22T14:01:57.286Z,95821.97
2023-02-22T14:04:45.541Z,95827.13
2023-02-22T14:07:46.711Z,95824.78
2023-02-22T14:10:48.928Z,95817.78
2023-02-22T14:13:18.836Z,95814.16
2023-02-22T14:16:20.887Z,95810.22
2023-02-22T14:18:51.591Z,95815.47
2023-02-22T14:21:21.176Z,95804.97
2023-02-22T14:23:50.658Z,95806.28
2023-02-22T14:26:24.436Z,95801.25
2023-02-22T14:28:55.472Z,95803.31
2023-02-22T14:31:36.055Z,95801.69
2023-02-22T14:34:08.242Z,95800.13
2023-02-22T14:36:41.738Z,95804.28
2023-02-22T14:39:21.295Z,95798.91
2023-02-22T14:41:54.621Z,95804.88
2023-02-22T14:44:28.708Z,95796.88
2023-02-22T14:47:02.418Z,95799.59
2023-02-22T14:49:32.983Z,95794.97
2023-02-22T14:52:06.186Z,95803.63
2023-02-22T14:54:41.741Z,95801.31
2023-02-22T14:57:15.605Z,95803.19
2023-02-22T14:59:58.856Z,95796.94
2023-02-22T15:02:27.772Z,95795.00
2023-02-22T15:04:56.758Z,95797.78
2023-02-22T15:07:28.127Z,95793.50
2023-02-22T15:10:20.547Z,95797.97
2023-02-22T15:13:08.629Z,95789.63
2023-02-22T15:15:43.720Z,95787.03
2023-02-22T15:18:21.928Z,95790.03
2023-02-22T15:20:55.857Z,95788.81
2023-02-22T15:23:27.627Z,95786.03
2023-02-22T15:25:55.104Z,95785.31
2023-02-22T15:28:25.286Z,95783.56
2023-02-22T15:30:52.778Z,95783.19
2023-02-22T15:33:24.171Z,95785.97
2023-02-22T15:35:56.655Z,95782.66
2023-02-22T15:38:29.354Z,95783.13
2023-02-22T15:41:02.491Z,95781.03
2023-02-22T15:43:32.024Z,95777.56
2023-02-22T15:46:00.778Z,95771.44
2023-02-22T15:48:31.542Z,95788.41
2023-02-22T15:51:04.178Z,95779.94
2023-02-22T15:53:39.873Z,95791.13
2023-02-22T15:56:12.549Z,95790.06
2023-02-22T15:58:40.449Z,95789.53
2023-02-22T16:01:10.993Z,95789.25
2023-02-22T16:03:47.044Z,95790.03
2023-02-22T16:06:28.423Z,95784.78
2023-02-22T16:08:57.357Z,95783.38
2023-02-22T16:11:29.857Z,95787.13
2023-02-22T16:14:00.776Z,95784.88
2023-02-22T16:16:34.051Z,95787.56
2023-02-22T16:19:28.568Z,95787.34
2023-02-22T16:21:58.242Z,95790.44
2023-02-22T16:24:30.080Z,95796.59
2023-02-22T16:27:07.172Z,95790.22
2023-02-22T16:29:34.746Z,95794.06
2023-02-22T16:32:03.833Z,95791.06
2023-02-22T16:34:32.710Z,95794.13
2023-02-22T16:37:01.239Z,95786.06
2023-02-22T16:39:31.336Z,95792.97
2023-02-22T16:42:01.156Z,95788.97
2023-02-22T16:44:29.754Z,95795.19
2023-02-22T16:46:59.251Z,95791.19
2023-02-22T16:49:27.346Z,95796.38
2023-02-22T16:51:59.721Z,95798.56
2023-02-22T16:54:34.174Z,95800.69
2023-02-22T16:57:03.889Z,95796.75
2023-02-22T16:59:34.030Z,95800.31
2023-02-22T17:02:01.505Z,95800.16
2023-02-22T17:04:29.119Z,95800.66
2023-02-22T17:06:58.991Z,95799.47
2023-02-22T17:09:26.812Z,95797.75
2023-02-22T17:11:55.224Z,95796.59
2023-02-22T17:14:26.918Z,95791.47
2023-02-22T17:16:54.398Z,95799.72
2023-02-22T17:19:24.384Z,95803.13
2023-02-22T17:21:51.929Z,95801.19
2023-02-22T17:24:23.432Z,95797.97
2023-02-22T17:26:51.945Z,95790.63
2023-02-22T17:29:20.563Z,95796.69
2023-02-22T17:31:48.886Z,95801.63
2023-02-22T17:34:17.727Z,95807.75
2023-02-22T17:36:45.259Z,95804.88
2023-02-22T17:39:13.449Z,95808.94
2023-02-22T17:41:42.252Z,95806.03
2023-02-22T17:44:09.712Z,95805.59
2023-02-22T17:46:37.375Z,95807.16
2023-02-22T17:49:04.915Z,95806.69
2023-02-22T17:51:32.428Z,95804.75
2023-02-22T17:53:59.894Z,95813.19
2023-02-22T17:56:27.363Z,95810.47
2023-02-22T17:58:56.278Z,95816.63
2023-02-22T18:01:26.863Z,95804.06
2023-02-22T18:03:54.799Z,95807.72
2023-02-22T18:06:26.945Z,95799.81
2023-02-22T18:08:56.493Z,95804.47
2023-02-22T18:11:26.220Z,95808.09
2023-02-22T18:13:54.488Z,95802.81
2023-02-22T18:16:25.431Z,95806.50
2023-02-22T18:18:53.048Z,95804.53
2023-02-22T18:21:20.570Z,95804.94
2023-02-22T18:23:48.077Z,95804.78
2023-02-22T18:26:17.790Z,95803.34
2023-02-22T18:28:45.406Z,95795.38
2023-02-22T18:31:15.411Z,95800.03
2023-02-22T18:33:45.322Z,95806.00
2023-02-22T18:36:14.379Z,95804.03
2023-02-22T18:38:43.773Z,95796.59
2023-02-22T18:41:13.374Z,95794.13
2023-02-22T18:43:41.924Z,95795.75
2023-02-22T18:46:11.103Z,95791.28
2023-02-22T18:48:38.744Z,95800.41
2023-02-22T18:51:10.161Z,95796.59
2023-02-22T18:53:38.310Z,95795.97
2023-02-22T18:56:08.326Z,95794.78
2023-02-22T18:58:36.096Z,95791.47
2023-02-22T19:01:04.771Z,95795.13
2023-02-22T19:03:33.075Z,95793.47
2023-02-22T19:06:02.762Z,95787.34
2023-02-22T19:08:32.372Z,95791.50
2023-02-22T19:11:05.134Z,95784.88
2023-02-22T19:13:33.769Z,95789.19
2023-02-22T19:16:03.174Z,95785.22
2023-02-22T19:18:31.534Z,95775.00
2023-02-22T19:20:59.386Z,95780.09
2023-02-22T19:23:27.001Z,95785.91
2023-02-22T19:25:55.919Z,95792.22
2023-02-22T19:28:28.014Z,95791.53
2023-02-22T19:30:55.550Z,95789.88
2023-02-22T19:33:26.043Z,95791.56
2023-02-22T19:35:53.703Z,95796.19
2023-02-22T19:38:21.296Z,95793.00
2023-02-22T19:40:48.789Z,95798.00
2023-02-22T19:43:17.588Z,95797.47
2023-02-22T19:45:45.102Z,95797.66
2023-02-22T19:48:14.198Z,95799.94
2023-02-22T19:50:48.857Z,95801.09
2023-02-22T19:53:16.408Z,95805.94
2023-02-22T19:55:44.510Z,95803.13
2023-02-22T19:58:14.613Z,95811.09
2023-02-22T20:00:43.439Z,95806.78
2023-02-22T20:03:13.346Z,95807.44
2023-02-22T20:05:41.946Z,95809.75
2023-02-22T20:08:09.742Z,95806.41
2023-02-22T20:10:37.207Z,95808.38
2023-02-22T20:13:04.741Z,95809.09
2023-02-22T20:15:34.513Z,95807.94
2023-02-22T20:18:03.397Z,95814.84
2023-02-22T20:20:33.500Z,95806.06
2023-02-22T20:23:01.003Z,95804.41
2023-02-22T20:25:28.465Z,95813.06
2023-02-22T20:27:56.379Z,95811.56
2023-02-22T20:30:23.859Z,95813.72
2023-02-22T20:32:51.614Z,95815.34
2023-02-22T20:35:21.126Z,95809.22
2023-02-22T20:37:48.625Z,95814.38
2023-02-22T20:40:16.237Z,95811.03
2023-02-22T20:42:44.550Z,95816.84
2023-02-22T20:45:14.579Z,95814.72
2023-02-22T20:47:42.095Z,95817.66
2023-02-22T20:50:09.909Z,95812.38
2023-02-22T20:52:38.745Z,95810.06
2023-02-22T20:55:11.353Z,95808.41
2023-02-22T20:57:38.857Z,95809.44
2023-02-22T21:00:10.427Z,95807.75
2023-02-22T21:02:38.317Z,95813.56
2023-02-22T21:05:06.478Z,95806.09
2023-02-22T21:07:34.089Z,95805.47
2023-02-22T21:10:04.536Z,95815.72
2023-02-22T21:12:32.049Z,95809.59
2023-02-22T21:14:59.592Z,95809.41
2023-02-22T21:17:29.000Z,95807.28
2023-02-22T21:19:56.620Z,95810.75
2023-02-22T21:22:25.181Z,95806.47
2023-02-22T21:24:53.232Z,95803.16
2023-02-22T21:27:22.073Z,95803.66
2023-02-22T21:29:49.526Z,95802.16
2023-02-22T21:32:17.918Z,95803.31
2023-02-22T21:34:45.404Z,95806.63
2023-02-22T21:37:17.950Z,95804.16
2023-02-22T21:39:47.475Z,95799.81
2023-02-22T21:42:15.110Z,95807.78
2023-02-22T21:44:43.916Z,95800.66
2023-02-22T21:47:11.400Z,95801.31
2023-02-22T21:49:38.974Z,95795.03
2023-02-22T21:52:07.648Z,95802.00
2023-02-22T21:54:35.108Z,95799.34
2023-02-22T21:57:02.585Z,95799.34
2023-02-22T21:59:30.069Z,95805.31
2023-02-22T22:01:58.876Z,95799.34
2023-02-22T22:04:29.372Z,95802.50
2023-02-22T22:06:58.797Z,95804.31
2023-02-22T22:09:29.025Z,95797.69
2023-02-22T22:11:58.974Z,95794.53
2023-02-22T22:14:27.238Z,95792.88
2023-02-22T22:16:58.156Z,95797.19
2023-02-22T22:19:27.037Z,95792.22
2023-02-22T22:21:54.525Z,95798.50
2023-02-22T22:24:23.528Z,95787.41
2023-02-22T22:26:54.456Z,95793.72
2023-02-22T22:29:23.664Z,95800.00
2023-02-22T22:31:51.562Z,95798.53
2023-02-22T22:34:19.481Z,95796.88
2023-02-22T22:36:48.431Z,95798.50
2023-02-22T22:39:16.053Z,95801.66
2023-02-22T22:41:44.985Z,95804.13
2023-02-22T22:44:15.194Z,95796.03
2023-02-22T22:46:43.583Z,95796.53
2023-02-22T22:49:13.287Z,95798.50
2023-02-22T22:51:42.438Z,95803.31
2023-02-22T22:54:11.684Z,95798.66
2023-02-22T22:56:39.531Z,95799.66
2023-02-22T22:59:09.535Z,95794.88
2023-02-22T23:01:40.509Z,95799.69
2023-02-22T23:04:10.687Z,95795.88
2023-02-22T23:06:41.093Z,95802.47
2023-02-22T23:09:11.375Z,95803.81
2023-02-22T23:11:45.033Z,95808.09
2023-02-22T23:14:15.123Z,95806.09
2023-02-22T23:16:42.860Z,95805.44
2023-02-22T23:19:10.692Z,95803.09
2023-02-22T23:21:39.327Z,95793.16
2023-02-22T23:24:07.316Z,95801.59
2023-02-22T23:26:36.046Z,95805.91
2023-02-22T23:29:05.406Z,95806.41
2023-02-22T23:31:33.166Z,95803.25
2023-02-22T23:34:06.516Z,95803.25
2023-02-22T23:36:34.609Z,95804.06
2023-02-22T23:39:02.103Z,95801.56
2023-02-22T23:41:29.762Z,95808.69
2023-02-22T23:43:57.874Z,95803.38
2023-02-22T23:46:27.037Z,95806.38
2023-02-22T23:49:01.542Z,95803.72
2023-02-22T23:51:38.971Z,95804.75
2023-02-22T23:54:07.240Z,95812.03
2023-02-22T23:56:35.327Z,95810.56
2023-02-22T23:59:09.448Z,95808.91
